sensor_id;sensor_type;location;lat;lon;timestamp;pressure;altitude;pressure_sealevel;temperature;humidity
19286;BME280;9776;50.798;6.430;2023-09-08T00:01:13;100382.00;;;21.25;55.53
19286;BME280;9776;50.798;6.430;2023-09-08T00:03:40;100378.88;;;21.28;55.65
19286;BME280;9776;50.798;6.430;2023-09-08T00:06:06;100373.22;;;21.36;55.28
19286;BME280;9776;50.798;6.430;2023-09-08T00:08:33;100370.28;;;21.44;55.11
19286;BME280;9776;50.798;6.430;2023-09-08T00:10:59;100376.25;;;21.46;55.21
19286;BME280;9776;50.798;6.430;2023-09-08T00:13:26;100368.22;;;21.46;54.97
19286;BME280;9776;50.798;6.430;2023-09-08T00:15:54;100359.09;;;21.47;55.41
19286;BME280;9776;50.798;6.430;2023-09-08T00:18:21;100357.66;;;21.45;55.30
19286;BME280;9776;50.798;6.430;2023-09-08T00:20:48;100360.44;;;21.38;55.49
19286;BME280;9776;50.798;6.430;2023-09-08T00:23:14;100366.59;;;21.39;55.03
19286;BME280;9776;50.798;6.430;2023-09-08T00:25:41;100362.88;;;21.40;54.97
19286;BME280;9776;50.798;6.430;2023-09-08T00:28:07;100367.44;;;21.39;54.95
19286;BME280;9776;50.798;6.430;2023-09-08T00:30:34;100363.31;;;21.37;55.23
19286;BME280;9776;50.798;6.430;2023-09-08T00:33:02;100362.06;;;21.39;55.03
19286;BME280;9776;50.798;6.430;2023-09-08T00:35:29;100358.97;;;21.36;55.04
19286;BME280;9776;50.798;6.430;2023-09-08T00:37:56;100361.31;;;21.32;55.17
19286;BME280;9776;50.798;6.430;2023-09-08T00:40:22;100365.84;;;21.32;55.22
19286;BME280;9776;50.798;6.430;2023-09-08T00:42:49;100363.78;;;21.27;55.06
19286;BME280;9776;50.798;6.430;2023-09-08T00:45:16;100364.03;;;21.26;55.35
19286;BME280;9776;50.798;6.430;2023-09-08T00:47:42;100365.28;;;21.23;55.03
19286;BME280;9776;50.798;6.430;2023-09-08T00:50:11;100361.38;;;21.19;55.21
19286;BME280;9776;50.798;6.430;2023-09-08T00:52:38;100360.00;;;21.10;55.20
19286;BME280;9776;50.798;6.430;2023-09-08T00:55:05;100364.13;;;21.06;55.44
19286;BME280;9776;50.798;6.430;2023-09-08T00:57:32;100351.16;;;21.03;55.52
19286;BME280;9776;50.798;6.430;2023-09-08T00:59:59;100353.88;;;20.97;55.50
19286;BME280;9776;50.798;6.430;2023-09-08T01:02:26;100351.84;;;20.92;55.58
19286;BME280;9776;50.798;6.430;2023-09-08T01:04:53;100360.69;;;20.92;55.67
19286;BME280;9776;50.798;6.430;2023-09-08T01:07:21;100350.78;;;20.93;55.76
19286;BME280;9776;50.798;6.430;2023-09-08T01:09:49;100344.59;;;20.92;55.83
19286;BME280;9776;50.798;6.430;2023-09-08T01:12:16;100347.28;;;20.92;56.02
19286;BME280;9776;50.798;6.430;2023-09-08T01:14:42;100346.25;;;20.93;55.70
19286;BME280;9776;50.798;6.430;2023-09-08T01:17:09;100342.13;;;20.91;55.79
19286;BME280;9776;50.798;6.430;2023-09-08T01:19:38;100345.91;;;20.83;56.21
19286;BME280;9776;50.798;6.430;2023-09-08T01:25:21;100350.06;;;20.79;56.50
19286;BME280;9776;50.798;6.430;2023-09-08T01:27:50;100352.34;;;20.76;56.28
19286;BME280;9776;50.798;6.430;2023-09-08T01:30:18;100348.03;;;20.75;56.59
19286;BME280;9776;50.798;6.430;2023-09-08T01:32:45;100347.41;;;20.73;56.41
19286;BME280;9776;50.798;6.430;2023-09-08T01:35:12;100344.72;;;20.73;56.48
19286;BME280;9776;50.798;6.430;2023-09-08T01:37:40;100338.53;;;20.72;56.82
19286;BME280;9776;50.798;6.430;2023-09-08T01:40:08;100343.69;;;20.74;56.62
19286;BME280;9776;50.798;6.430;2023-09-08T01:42:37;100335.25;;;20.70;56.63
19286;BME280;9776;50.798;6.430;2023-09-08T01:45:05;100341.63;;;20.69;56.76
19286;BME280;9776;50.798;6.430;2023-09-08T01:47:32;100331.13;;;20.68;57.10
19286;BME280;9776;50.798;6.430;2023-09-08T01:50:00;100326.38;;;20.70;57.05
19286;BME280;9776;50.798;6.430;2023-09-08T01:52:27;100331.31;;;20.73;56.87
19286;BME280;9776;50.798;6.430;2023-09-08T01:54:53;100338.53;;;20.72;56.94
19286;BME280;9776;50.798;6.430;2023-09-08T01:57:20;100335.66;;;20.74;56.74
19286;BME280;9776;50.798;6.430;2023-09-08T01:59:48;100329.44;;;20.73;57.08
19286;BME280;9776;50.798;6.430;2023-09-08T02:02:14;100328.41;;;20.74;56.91
19286;BME280;9776;50.798;6.430;2023-09-08T02:04:41;100327.00;;;20.72;56.95
19286;BME280;9776;50.798;6.430;2023-09-08T02:07:08;100331.13;;;20.68;57.02
19286;BME280;9776;50.798;6.430;2023-09-08T02:09:36;100326.59;;;20.68;57.21
19286;BME280;9776;50.798;6.430;2023-09-08T02:12:04;100335.25;;;20.70;57.05
19286;BME280;9776;50.798;6.430;2023-09-08T02:14:31;100324.13;;;20.67;57.00
19286;BME280;9776;50.798;6.430;2023-09-08T02:16:58;100326.63;;;20.62;57.02
19286;BME280;9776;50.798;6.430;2023-09-08T02:19:25;100327.03;;;20.65;57.15
19286;BME280;9776;50.798;6.430;2023-09-08T02:21:52;100336.50;;;20.68;57.08
19286;BME280;9776;50.798;6.430;2023-09-08T02:24:18;100323.09;;;20.68;57.15
19286;BME280;9776;50.798;6.430;2023-09-08T02:26:45;100314.44;;;20.66;56.90
19286;BME280;9776;50.798;6.430;2023-09-08T02:29:12;100322.13;;;20.56;57.34
19286;BME280;9776;50.798;6.430;2023-09-08T02:31:38;100317.59;;;20.56;57.60
19286;BME280;9776;50.798;6.430;2023-09-08T02:34:06;100310.53;;;20.62;57.19
19286;BME280;9776;50.798;6.430;2023-09-08T02:36:33;100313.22;;;20.62;57.46
19286;BME280;9776;50.798;6.430;2023-09-08T02:38:59;100313.81;;;20.64;56.99
19286;BME280;9776;50.798;6.430;2023-09-08T02:41:26;100310.38;;;20.57;57.26
19286;BME280;9776;50.798;6.430;2023-09-08T02:43:52;100309.78;;;20.48;57.71
19286;BME280;9776;50.798;6.430;2023-09-08T02:46:19;100303.84;;;20.40;57.91
19286;BME280;9776;50.798;6.430;2023-09-08T02:48:46;100308.59;;;20.37;57.79
19286;BME280;9776;50.798;6.430;2023-09-08T02:51:14;100312.53;;;20.35;58.05
19286;BME280;9776;50.798;6.430;2023-09-08T02:53:40;100315.00;;;20.36;57.81
19286;BME280;9776;50.798;6.430;2023-09-08T02:56:07;100316.25;;;20.34;57.90
19286;BME280;9776;50.798;6.430;2023-09-08T02:58:34;100312.34;;;20.30;58.13
19286;BME280;9776;50.798;6.430;2023-09-08T03:01:10;100310.50;;;20.30;58.04
19286;BME280;9776;50.798;6.430;2023-09-08T03:03:39;100307.22;;;20.28;57.95
19286;BME280;9776;50.798;6.430;2023-09-08T03:06:05;100310.09;;;20.27;58.12
19286;BME280;9776;50.798;6.430;2023-09-08T03:08:33;100312.56;;;20.28;57.86
19286;BME280;9776;50.798;6.430;2023-09-08T03:11:02;100308.00;;;20.29;57.86
19286;BME280;9776;50.798;6.430;2023-09-08T03:13:29;100311.09;;;20.32;58.03
19286;BME280;9776;50.798;6.430;2023-09-08T03:15:56;100314.19;;;20.29;57.82
19286;BME280;9776;50.798;6.430;2023-09-08T03:18:23;100314.81;;;20.18;58.28
19286;BME280;9776;50.798;6.430;2023-09-08T03:20:50;100308.63;;;20.18;57.90
19286;BME280;9776;50.798;6.430;2023-09-08T03:23:17;100314.47;;;20.08;58.36
19286;BME280;9776;50.798;6.430;2023-09-08T03:25:45;100304.53;;;20.09;58.31
19286;BME280;9776;50.798;6.430;2023-09-08T03:28:12;100314.47;;;20.08;58.25
19286;BME280;9776;50.798;6.430;2023-09-08T03:30:38;100301.69;;;20.04;57.93
19286;BME280;9776;50.798;6.430;2023-09-08T03:33:05;100294.09;;;19.94;58.17
19286;BME280;9776;50.798;6.430;2023-09-08T03:35:31;100304.00;;;19.87;58.37
19286;BME280;9776;50.798;6.430;2023-09-08T03:37:58;100306.28;;;19.77;58.78
19286;BME280;9776;50.798;6.430;2023-09-08T03:40:24;100305.91;;;19.67;58.76
19286;BME280;9776;50.798;6.430;2023-09-08T03:42:52;100299.94;;;19.65;59.05
19286;BME280;9776;50.798;6.430;2023-09-08T03:45:19;100299.72;;;19.66;58.78
19286;BME280;9776;50.798;6.430;2023-09-08T03:47:46;100304.03;;;19.74;58.52
19286;BME280;9776;50.798;6.430;2023-09-08T03:50:12;100294.97;;;19.75;58.43
19286;BME280;9776;50.798;6.430;2023-09-08T03:52:39;100302.81;;;19.76;58.44
19286;BME280;9776;50.798;6.430;2023-09-08T03:55:06;100305.88;;;19.80;58.37
19286;BME280;9776;50.798;6.430;2023-09-08T03:57:33;100299.50;;;19.81;58.29
19286;BME280;9776;50.798;6.430;2023-09-08T04:00:01;100304.84;;;19.81;58.22
19286;BME280;9776;50.798;6.430;2023-09-08T04:02:31;100301.56;;;19.79;58.28
19286;BME280;9776;50.798;6.430;2023-09-08T04:04:58;100299.31;;;19.76;58.25
19286;BME280;9776;50.798;6.430;2023-09-08T04:07:25;100305.06;;;19.73;58.35
19286;BME280;9776;50.798;6.430;2023-09-08T04:09:51;100303.84;;;19.75;58.40
19286;BME280;9776;50.798;6.430;2023-09-08T04:12:18;100304.66;;;19.76;58.27
19286;BME280;9776;50.798;6.430;2023-09-08T04:14:45;100301.16;;;19.69;58.52
19286;BME280;9776;50.798;6.430;2023-09-08T04:17:13;100300.56;;;19.67;58.59
19286;BME280;9776;50.798;6.430;2023-09-08T04:19:39;100303.44;;;19.65;58.45
19286;BME280;9776;50.798;6.430;2023-09-08T04:22:06;100301.81;;;19.64;58.48
19286;BME280;9776;50.798;6.430;2023-09-08T04:24:35;100302.00;;;19.63;58.49
19286;BME280;9776;50.798;6.430;2023-09-08T04:27:02;100303.03;;;19.62;58.76
19286;BME280;9776;50.798;6.430;2023-09-08T04:29:29;100311.91;;;19.62;58.79
19286;BME280;9776;50.798;6.430;2023-09-08T04:31:56;100303.22;;;19.54;59.00
19286;BME280;9776;50.798;6.430;2023-09-08T04:34:24;100302.84;;;19.50;58.84
19286;BME280;9776;50.798;6.430;2023-09-08T04:36:50;100305.13;;;19.47;59.08
19286;BME280;9776;50.798;6.430;2023-09-08T04:39:17;100313.56;;;19.44;59.06
19286;BME280;9776;50.798;6.430;2023-09-08T04:41:43;100311.72;;;19.44;59.15
19286;BME280;9776;50.798;6.430;2023-09-08T04:44:10;100303.03;;;19.49;59.18
19286;BME280;9776;50.798;6.430;2023-09-08T04:46:36;100310.88;;;19.50;59.13
19286;BME280;9776;50.798;6.430;2023-09-08T04:49:03;100300.78;;;19.46;59.31
19286;BME280;9776;50.798;6.430;2023-09-08T04:51:31;100310.88;;;19.44;59.26
19286;BME280;9776;50.798;6.430;2023-09-08T04:53:58;100311.09;;;19.42;59.29
19286;BME280;9776;50.798;6.430;2023-09-08T04:56:24;100308.00;;;19.39;59.03
19286;BME280;9776;50.798;6.430;2023-09-08T04:58:51;100309.22;;;19.36;59.06
19286;BME280;9776;50.798;6.430;2023-09-08T05:01:20;100306.53;;;19.30;59.42
19286;BME280;9776;50.798;6.430;2023-09-08T05:03:47;100312.06;;;19.28;59.15
19286;BME280;9776;50.798;6.430;2023-09-08T05:06:13;100313.53;;;19.24;59.01
19286;BME280;9776;50.798;6.430;2023-09-08T05:08:41;100315.38;;;19.23;59.32
19286;BME280;9776;50.798;6.430;2023-09-08T05:11:09;100313.94;;;19.21;59.44
19286;BME280;9776;50.798;6.430;2023-09-08T05:13:35;100313.72;;;19.22;59.24
19286;BME280;9776;50.798;6.430;2023-09-08T05:16:02;100316.41;;;19.22;59.14
19286;BME280;9776;50.798;6.430;2023-09-08T05:18:36;100313.75;;;19.16;59.21
19286;BME280;9776;50.798;6.430;2023-09-08T05:21:03;100315.59;;;19.15;59.74
19286;BME280;9776;50.798;6.430;2023-09-08T05:23:30;100315.78;;;19.20;59.42
19286;BME280;9776;50.798;6.430;2023-09-08T05:25:58;100315.56;;;19.22;59.48
19286;BME280;9776;50.798;6.430;2023-09-08T05:28:24;100320.50;;;19.25;59.48
19286;BME280;9776;50.798;6.430;2023-09-08T05:30:51;100321.16;;;19.27;59.45
19286;BME280;9776;50.798;6.430;2023-09-08T05:33:18;100325.88;;;19.32;59.64
19286;BME280;9776;50.798;6.430;2023-09-08T05:35:45;100322.59;;;19.30;59.71
19286;BME280;9776;50.798;6.430;2023-09-08T05:38:12;100321.13;;;19.34;59.41
19286;BME280;9776;50.798;6.430;2023-09-08T05:40:39;100319.50;;;19.33;59.51
19286;BME280;9776;50.798;6.430;2023-09-08T05:43:07;100322.78;;;19.35;59.54
19286;BME280;9776;50.798;6.430;2023-09-08T05:45:34;100314.97;;;19.33;59.70
19286;BME280;9776;50.798;6.430;2023-09-08T05:48:01;100330.25;;;19.39;59.81
19286;BME280;9776;50.798;6.430;2023-09-08T05:50:27;100332.69;;;19.41;59.80
19286;BME280;9776;50.798;6.430;2023-09-08T05:52:54;100331.47;;;19.43;59.92
19286;BME280;9776;50.798;6.430;2023-09-08T05:55:21;100335.16;;;19.49;59.71
19286;BME280;9776;50.798;6.430;2023-09-08T05:57:47;100333.13;;;19.51;59.92
19286;BME280;9776;50.798;6.430;2023-09-08T06:00:16;100334.75;;;19.58;59.95
19286;BME280;9776;50.798;6.430;2023-09-08T06:02:43;100337.22;;;19.60;59.71
19286;BME280;9776;50.798;6.430;2023-09-08T06:05:09;100333.09;;;19.64;59.83
19286;BME280;9776;50.798;6.430;2023-09-08T06:07:36;100340.13;;;19.65;60.02
19286;BME280;9776;50.798;6.430;2023-09-08T06:10:03;100337.63;;;19.63;60.28
19286;BME280;9776;50.798;6.430;2023-09-08T06:12:30;100330.00;;;19.67;60.03
19286;BME280;9776;50.798;6.430;2023-09-08T06:14:56;100334.94;;;19.70;60.21
19286;BME280;9776;50.798;6.430;2023-09-08T06:17:24;100338.66;;;19.75;60.35
19286;BME280;9776;50.798;6.430;2023-09-08T06:19:51;100347.09;;;19.79;60.45
19286;BME280;9776;50.798;6.430;2023-09-08T06:22:17;100337.00;;;19.81;60.51
19286;BME280;9776;50.798;6.430;2023-09-08T06:24:44;100342.94;;;19.83;60.32
19286;BME280;9776;50.798;6.430;2023-09-08T06:27:11;100339.44;;;19.89;60.46
19286;BME280;9776;50.798;6.430;2023-09-08T06:29:38;100334.47;;;19.99;60.21
19286;BME280;9776;50.798;6.430;2023-09-08T06:32:06;100333.41;;;20.13;60.09
19286;BME280;9776;50.798;6.430;2023-09-08T06:34:34;100341.63;;;20.31;59.97
19286;BME280;9776;50.798;6.430;2023-09-08T06:37:01;100342.13;;;20.53;59.89
19286;BME280;9776;50.798;6.430;2023-09-08T06:39:27;100333.44;;;20.95;59.17
19286;BME280;9776;50.798;6.430;2023-09-08T06:41:54;100339.22;;;21.55;57.82
19286;BME280;9776;50.798;6.430;2023-09-08T06:44:21;100342.06;;;22.21;56.56
19286;BME280;9776;50.798;6.430;2023-09-08T06:46:48;100344.84;;;22.81;55.25
19286;BME280;9776;50.798;6.430;2023-09-08T06:49:14;100343.00;;;23.34;54.17
19286;BME280;9776;50.798;6.430;2023-09-08T06:51:42;100332.59;;;23.84;52.93
19286;BME280;9776;50.798;6.430;2023-09-08T06:54:09;100340.91;;;24.29;52.21
19286;BME280;9776;50.798;6.430;2023-09-08T06:56:36;100336.88;;;24.71;51.35
19286;BME280;9776;50.798;6.430;2023-09-08T06:59:03;100338.78;;;25.16;50.42
19286;BME280;9776;50.798;6.430;2023-09-08T07:01:29;100342.69;;;25.53;49.67
19286;BME280;9776;50.798;6.430;2023-09-08T07:03:56;100337.88;;;25.93;48.72
19286;BME280;9776;50.798;6.430;2023-09-08T07:06:23;100339.47;;;26.33;47.67
19286;BME280;9776;50.798;6.430;2023-09-08T07:08:50;100338.75;;;26.64;46.94
19286;BME280;9776;50.798;6.430;2023-09-08T07:11:17;100346.38;;;26.89;46.43
19286;BME280;9776;50.798;6.430;2023-09-08T07:13:44;100350.28;;;27.30;45.53
19286;BME280;9776;50.798;6.430;2023-09-08T07:16:11;100351.13;;;27.67;44.73
19286;BME280;9776;50.798;6.430;2023-09-08T07:18:37;100355.47;;;28.05;43.59
19286;BME280;9776;50.798;6.430;2023-09-08T07:21:04;100350.47;;;28.39;42.88
19286;BME280;9776;50.798;6.430;2023-09-08T07:23:31;100349.50;;;28.70;42.34
19286;BME280;9776;50.798;6.430;2023-09-08T07:25:59;100345.22;;;29.04;41.26
19286;BME280;9776;50.798;6.430;2023-09-08T07:28:26;100352.88;;;29.48;40.88
19286;BME280;9776;50.798;6.430;2023-09-08T07:30:52;100347.38;;;29.93;39.59
19286;BME280;9776;50.798;6.430;2023-09-08T07:33:19;100346.69;;;30.36;39.01
19286;BME280;9776;50.798;6.430;2023-09-08T07:35:47;100347.88;;;30.74;38.43
19286;BME280;9776;50.798;6.430;2023-09-08T07:38:14;100353.44;;;31.08;37.74
19286;BME280;9776;50.798;6.430;2023-09-08T07:40:41;100344.34;;;31.52;37.07
19286;BME280;9776;50.798;6.430;2023-09-08T07:43:09;100351.28;;;31.96;36.48
19286;BME280;9776;50.798;6.430;2023-09-08T07:45:36;100354.97;;;32.34;35.80
19286;BME280;9776;50.798;6.430;2023-09-08T07:48:03;100344.75;;;32.64;35.53
19286;BME280;9776;50.798;6.430;2023-09-08T07:50:29;100348.75;;;33.08;34.81
19286;BME280;9776;50.798;6.430;2023-09-08T07:52:56;100340.34;;;33.37;34.43
19286;BME280;9776;50.798;6.430;2023-09-08T07:55:24;100344.50;;;33.67;34.08
19286;BME280;9776;50.798;6.430;2023-09-08T07:57:53;100346.59;;;34.16;33.22
19286;BME280;9776;50.798;6.430;2023-09-08T08:00:21;100343.94;;;34.65;32.44
19286;BME280;9776;50.798;6.430;2023-09-08T08:02:49;100342.88;;;35.11;31.79
19286;BME280;9776;50.798;6.430;2023-09-08T08:05:16;100345.00;;;35.58;30.92
19286;BME280;9776;50.798;6.430;2023-09-08T08:07:43;100352.44;;;35.97;30.48
19286;BME280;9776;50.798;6.430;2023-09-08T08:10:11;100345.88;;;36.07;30.35
19286;BME280;9776;50.798;6.430;2023-09-08T08:12:39;100344.66;;;35.91;30.35
19286;BME280;9776;50.798;6.430;2023-09-08T08:15:06;100338.97;;;36.18;30.00
19286;BME280;9776;50.798;6.430;2023-09-08T08:17:36;100347.97;;;36.66;29.49
19286;BME280;9776;50.798;6.430;2023-09-08T08:20:05;100340.09;;;37.08;28.94
19286;BME280;9776;50.798;6.430;2023-09-08T08:22:33;100335.34;;;37.51;28.39
19286;BME280;9776;50.798;6.430;2023-09-08T08:25:00;100344.41;;;38.07;27.20
19286;BME280;9776;50.798;6.430;2023-09-08T08:27:28;100342.84;;;38.55;27.06
19286;BME280;9776;50.798;6.430;2023-09-08T08:29:56;100340.63;;;38.90;26.45
19286;BME280;9776;50.798;6.430;2023-09-08T08:32:24;100337.44;;;39.21;26.00
19286;BME280;9776;50.798;6.430;2023-09-08T08:34:52;100338.41;;;39.70;25.65
19286;BME280;9776;50.798;6.430;2023-09-08T08:37:19;100341.66;;;39.96;25.07
19286;BME280;9776;50.798;6.430;2023-09-08T08:39:46;100339.00;;;40.36;24.50
19286;BME280;9776;50.798;6.430;2023-09-08T08:42:12;100335.94;;;40.77;24.34
19286;BME280;9776;50.798;6.430;2023-09-08T08:44:40;100336.91;;;41.25;23.76
19286;BME280;9776;50.798;6.430;2023-09-08T08:47:08;100325.72;;;41.65;23.50
19286;BME280;9776;50.798;6.430;2023-09-08T08:49:36;100328.84;;;42.10;22.92
19286;BME280;9776;50.798;6.430;2023-09-08T08:52:06;100333.97;;;42.59;22.55
19286;BME280;9776;50.798;6.430;2023-09-08T08:54:35;100328.00;;;43.14;21.98
19286;BME280;9776;50.798;6.430;2023-09-08T08:57:04;100320.88;;;43.59;21.13
19286;BME280;9776;50.798;6.430;2023-09-08T08:59:31;100331.28;;;44.11;20.68
19286;BME280;9776;50.798;6.430;2023-09-08T09:01:58;100331.25;;;44.59;20.20
19286;BME280;9776;50.798;6.430;2023-09-08T09:04:26;100322.88;;;44.89;19.92
19286;BME280;9776;50.798;6.430;2023-09-08T09:06:53;100325.75;;;45.30;19.66
19286;BME280;9776;50.798;6.430;2023-09-08T09:09:23;100320.56;;;45.69;19.32
19286;BME280;9776;50.798;6.430;2023-09-08T09:11:50;100321.75;;;46.15;18.80
19286;BME280;9776;50.798;6.430;2023-09-08T09:14:17;100321.94;;;46.50;18.33
19286;BME280;9776;50.798;6.430;2023-09-08T09:16:44;100320.56;;;46.92;17.85
19286;BME280;9776;50.798;6.430;2023-09-08T09:19:18;100315.06;;;47.23;17.41
19286;BME280;9776;50.798;6.430;2023-09-08T09:21:47;100323.50;;;47.66;17.33
19286;BME280;9776;50.798;6.430;2023-09-08T09:24:16;100309.53;;;47.87;16.95
19286;BME280;9776;50.798;6.430;2023-09-08T09:26:45;100310.69;;;48.11;16.57
19286;BME280;9776;50.798;6.430;2023-09-08T09:29:12;100316.63;;;48.41;16.29
19286;BME280;9776;50.798;6.430;2023-09-08T09:31:50;100315.69;;;48.79;15.85
19286;BME280;9776;50.798;6.430;2023-09-08T09:34:18;100312.28;;;49.27;15.59
19286;BME280;9776;50.798;6.430;2023-09-08T09:36:46;100314.38;;;49.67;15.26
19286;BME280;9776;50.798;6.430;2023-09-08T09:39:16;100311.63;;;50.05;14.97
19286;BME280;9776;50.798;6.430;2023-09-08T09:41:45;100311.38;;;50.29;14.74
19286;BME280;9776;50.798;6.430;2023-09-08T09:44:12;100302.03;;;50.39;14.61
19286;BME280;9776;50.798;6.430;2023-09-08T09:46:43;100305.72;;;50.67;14.61
19286;BME280;9776;50.798;6.430;2023-09-08T09:49:10;100307.53;;;51.11;14.16
19286;BME280;9776;50.798;6.430;2023-09-08T09:51:40;100299.41;;;51.43;13.87
19286;BME280;9776;50.798;6.430;2023-09-08T09:54:07;100299.44;;;51.66;13.83
19286;BME280;9776;50.798;6.430;2023-09-08T09:56:35;100292.69;;;51.83;13.47
19286;BME280;9776;50.798;6.430;2023-09-08T09:59:07;100301.72;;;51.94;13.68
19286;BME280;9776;50.798;6.430;2023-09-08T10:01:34;100298.09;;;52.17;13.60
19286;BME280;9776;50.798;6.430;2023-09-08T10:04:01;100295.00;;;52.51;12.94
19286;BME280;9776;50.798;6.430;2023-09-08T10:06:31;100295.72;;;52.75;13.04
19286;BME280;9776;50.798;6.430;2023-09-08T10:08:59;100301.81;;;52.89;13.12
19286;BME280;9776;50.798;6.430;2023-09-08T10:11:28;100299.16;;;53.18;12.43
19286;BME280;9776;50.798;6.430;2023-09-08T10:13:58;100292.13;;;53.42;12.45
19286;BME280;9776;50.798;6.430;2023-09-08T10:16:28;100297.69;;;53.62;12.41
19286;BME280;9776;50.798;6.430;2023-09-08T10:18:58;100293.44;;;53.70;12.08
19286;BME280;9776;50.798;6.430;2023-09-08T10:21:26;100286.00;;;53.76;12.34
19286;BME280;9776;50.798;6.430;2023-09-08T10:23:59;100287.75;;;53.86;12.14
19286;BME280;9776;50.798;6.430;2023-09-08T10:26:31;100284.13;;;54.02;12.12
19286;BME280;9776;50.798;6.430;2023-09-08T10:29:00;100287.19;;;54.07;11.78
19286;BME280;9776;50.798;6.430;2023-09-08T10:31:29;100293.16;;;53.97;11.75
19286;BME280;9776;50.798;6.430;2023-09-08T10:33:57;100289.81;;;54.14;11.92
19286;BME280;9776;50.798;6.430;2023-09-08T10:36:24;100289.88;;;54.27;11.74
19286;BME280;9776;50.798;6.430;2023-09-08T10:38:51;100284.22;;;54.27;11.66
19286;BME280;9776;50.798;6.430;2023-09-08T10:41:27;100283.28;;;54.17;11.53
19286;BME280;9776;50.798;6.430;2023-09-08T10:44:00;100278.53;;;54.56;11.46
19286;BME280;9776;50.798;6.430;2023-09-08T10:46:30;100271.91;;;54.88;11.20
19286;BME280;9776;50.798;6.430;2023-09-08T10:49:02;100273.25;;;55.08;10.72
19286;BME280;9776;50.798;6.430;2023-09-08T10:51:29;100274.72;;;55.25;10.92
19286;BME280;9776;50.798;6.430;2023-09-08T10:53:56;100266.13;;;55.29;10.93
19286;BME280;9776;50.798;6.430;2023-09-08T10:56:27;100264.84;;;55.55;10.67
19286;BME280;9776;50.798;6.430;2023-09-08T10:58:54;100266.56;;;55.74;10.52
19286;BME280;9776;50.798;6.430;2023-09-08T11:01:21;100268.84;;;55.79;10.79
19286;BME280;9776;50.798;6.430;2023-09-08T11:03:54;100272.13;;;55.78;10.44
19286;BME280;9776;50.798;6.430;2023-09-08T11:06:22;100268.13;;;55.88;10.65
19286;BME280;9776;50.798;6.430;2023-09-08T11:08:49;100258.84;;;55.87;10.44
19286;BME280;9776;50.798;6.430;2023-09-08T11:11:20;100270.97;;;55.88;10.59
19286;BME280;9776;50.798;6.430;2023-09-08T11:13:47;100264.91;;;55.99;10.26
19286;BME280;9776;50.798;6.430;2023-09-08T11:16:14;100263.59;;;56.12;10.12
19286;BME280;9776;50.798;6.430;2023-09-08T11:18:41;100257.50;;;56.23;10.08
19286;BME280;9776;50.798;6.430;2023-09-08T11:21:10;100261.06;;;56.36;10.18
19286;BME280;9776;50.798;6.430;2023-09-08T11:23:37;100264.44;;;56.43;10.47
19286;BME280;9776;50.798;6.430;2023-09-08T11:26:05;100256.41;;;56.20;10.08
19286;BME280;9776;50.798;6.430;2023-09-08T11:28:34;100258.06;;;56.09;10.68
19286;BME280;9776;50.798;6.430;2023-09-08T11:31:01;100251.63;;;56.08;10.66
19286;BME280;9776;50.798;6.430;2023-09-08T11:33:33;100255.84;;;56.34;10.61
19286;BME280;9776;50.798;6.430;2023-09-08T11:36:13;100246.84;;;56.27;10.59
19286;BME280;9776;50.798;6.430;2023-09-08T11:38:42;100252.47;;;56.39;10.19
19286;BME280;9776;50.798;6.430;2023-09-08T11:41:10;100240.91;;;56.34;10.50
19286;BME280;9776;50.798;6.430;2023-09-08T11:43:38;100242.91;;;56.24;10.27
19286;BME280;9776;50.798;6.430;2023-09-08T11:46:04;100247.03;;;56.32;10.02
19286;BME280;9776;50.798;6.430;2023-09-08T11:48:31;100248.53;;;56.46;9.79
19286;BME280;9776;50.798;6.430;2023-09-08T11:50:58;100250.63;;;56.55;10.11
19286;BME280;9776;50.798;6.430;2023-09-08T11:53:27;100254.13;;;56.59;9.99
19286;BME280;9776;50.798;6.430;2023-09-08T11:55:53;100245.31;;;56.57;9.86
19286;BME280;9776;50.798;6.430;2023-09-08T11:58:21;100245.72;;;56.77;9.77
19286;BME280;9776;50.798;6.430;2023-09-08T12:00:48;100245.13;;;56.91;9.64
19286;BME280;9776;50.798;6.430;2023-09-08T12:03:16;100243.16;;;57.01;9.67
19286;BME280;9776;50.798;6.430;2023-09-08T12:05:44;100247.72;;;57.07;9.65
19286;BME280;9776;50.798;6.430;2023-09-08T12:08:16;100255.47;;;57.16;9.95
19286;BME280;9776;50.798;6.430;2023-09-08T12:10:44;100253.44;;;57.25;9.86
19286;BME280;9776;50.798;6.430;2023-09-08T12:13:11;100248.56;;;57.26;9.38
19286;BME280;9776;50.798;6.430;2023-09-08T12:15:40;100238.59;;;57.21;9.42
19286;BME280;9776;50.798;6.430;2023-09-08T12:18:08;100232.94;;;57.12;9.38
19286;BME280;9776;50.798;6.430;2023-09-08T12:20:36;100226.59;;;56.99;9.96
19286;BME280;9776;50.798;6.430;2023-09-08T12:23:15;100243.03;;;56.73;9.93
19286;BME280;9776;50.798;6.430;2023-09-08T12:25:46;100233.09;;;56.78;10.09
19286;BME280;9776;50.798;6.430;2023-09-08T12:28:13;100231.84;;;56.79;10.30
19286;BME280;9776;50.798;6.430;2023-09-08T12:30:39;100231.84;;;56.79;10.11
19286;BME280;9776;50.798;6.430;2023-09-08T12:33:07;100224.28;;;56.76;10.17
19286;BME280;9776;50.798;6.430;2023-09-08T12:35:35;100229.31;;;55.98;10.81
19286;BME280;9776;50.798;6.430;2023-09-08T12:38:03;100224.38;;;55.20;11.10
19286;BME280;9776;50.798;6.430;2023-09-08T12:40:35;100223.25;;;54.55;11.36
19286;BME280;9776;50.798;6.430;2023-09-08T12:43:04;100217.91;;;54.82;11.25
19286;BME280;9776;50.798;6.430;2023-09-08T12:45:31;100219.50;;;54.83;11.20
19286;BME280;9776;50.798;6.430;2023-09-08T12:48:00;100223.56;;;54.82;11.15
19286;BME280;9776;50.798;6.430;2023-09-08T12:50:28;100219.28;;;54.77;11.16
19286;BME280;9776;50.798;6.430;2023-09-08T12:52:56;100216.78;;;54.67;11.20
19286;BME280;9776;50.798;6.430;2023-09-08T12:55:23;100217.53;;;54.29;11.42
19286;BME280;9776;50.798;6.430;2023-09-08T12:57:50;100215.38;;;53.63;11.67
19286;BME280;9776;50.798;6.430;2023-09-08T13:00:21;100207.88;;;52.21;12.64
19286;BME280;9776;50.798;6.430;2023-09-08T13:02:49;100215.69;;;50.10;13.83
19286;BME280;9776;50.798;6.430;2023-09-08T13:05:16;100215.56;;;47.90;15.62